sensor_id;sensor_type;location;lat;lon;timestamp;P1;durP1;ratioP1;P2;durP2;ratioP2
3297;SDS011;1661;53.572;10.174;2023-07-31T00:00:07;5.00;;;2.63;;
3297;SDS011;1661;53.572;10.174;2023-07-31T00:02:35;6.13;;;2.83;;
3297;SDS011;1661;53.572;10.174;2023-07-31T00:05:02;7.13;;;3.60;;
3297;SDS011;1661;53.572;10.174;2023-07-31T00:07:28;4.73;;;2.40;;
3297;SDS011;1661;53.572;10.174;2023-07-31T00:09:57;5.50;;;2.70;;
3297;SDS011;1661;53.572;10.174;2023-07-31T00:12:24;10.53;;;3.40;;
3297;SDS011;1661;53.572;10.174;2023-07-31T00:14:50;3.33;;;2.03;;
3297;SDS011;1661;53.572;10.174;2023-07-31T00:17:17;7.07;;;2.40;;
3297;SDS011;1661;53.572;10.174;2023-07-31T00:19:44;2.50;;;2.30;;
3297;SDS011;1661;53.572;10.174;2023-07-31T00:22:11;5.70;;;3.23;;
3297;SDS011;1661;53.572;10.174;2023-07-31T00:24:38;5.93;;;3.07;;
3297;SDS011;1661;53.572;10.174;2023-07-31T00:27:06;6.13;;;2.87;;
3297;SDS011;1661;53.572;10.174;2023-07-31T00:29:33;5.13;;;2.73;;
3297;SDS011;1661;53.572;10.174;2023-07-31T00:31:59;5.97;;;2.80;;
3297;SDS011;1661;53.572;10.174;2023-07-31T00:34:26;8.77;;;3.00;;
3297;SDS011;1661;53.572;10.174;2023-07-31T00:36:53;4.10;;;2.30;;
3297;SDS011;1661;53.572;10.174;2023-07-31T00:39:20;4.80;;;3.20;;
3297;SDS011;1661;53.572;10.174;2023-07-31T00:41:46;3.77;;;2.30;;
3297;SDS011;1661;53.572;10.174;2023-07-31T00:44:14;10.37;;;3.50;;
3297;SDS011;1661;53.572;10.174;2023-07-31T00:46:41;3.70;;;2.53;;
3297;SDS011;1661;53.572;10.174;2023-07-31T00:49:08;7.67;;;2.87;;
3297;SDS011;1661;53.572;10.174;2023-07-31T00:51:36;8.80;;;2.93;;
3297;SDS011;1661;53.572;10.174;2023-07-31T00:54:03;9.70;;;3.93;;
3297;SDS011;1661;53.572;10.174;2023-07-31T00:56:30;10.43;;;3.77;;
3297;SDS011;1661;53.572;10.174;2023-07-31T00:58:57;10.33;;;3.67;;
3297;SDS011;1661;53.572;10.174;2023-07-31T01:01:25;8.87;;;3.27;;
3297;SDS011;1661;53.572;10.174;2023-07-31T01:03:52;4.07;;;3.07;;
3297;SDS011;1661;53.572;10.174;2023-07-31T01:06:22;7.20;;;4.40;;
3297;SDS011;1661;53.572;10.174;2023-07-31T01:08:57;3.13;;;2.83;;
3297;SDS011;1661;53.572;10.174;2023-07-31T01:11:28;5.80;;;3.00;;
3297;SDS011;1661;53.572;10.174;2023-07-31T01:13:56;9.87;;;2.43;;
3297;SDS011;1661;53.572;10.174;2023-07-31T01:16:26;10.13;;;3.50;;
3297;SDS011;1661;53.572;10.174;2023-07-31T01:18:53;2.93;;;2.73;;
3297;SDS011;1661;53.572;10.174;2023-07-31T01:21:38;5.43;;;2.97;;
3297;SDS011;1661;53.572;10.174;2023-07-31T01:24:19;8.43;;;3.17;;
3297;SDS011;1661;53.572;10.174;2023-07-31T01:26:51;4.63;;;3.60;;
3297;SDS011;1661;53.572;10.174;2023-07-31T01:29:23;7.20;;;3.40;;
3297;SDS011;1661;53.572;10.174;2023-07-31T01:31:59;8.43;;;3.50;;
3297;SDS011;1661;53.572;10.174;2023-07-31T01:34:28;8.13;;;3.70;;
3297;SDS011;1661;53.572;10.174;2023-07-31T01:36:55;10.50;;;3.60;;
3297;SDS011;1661;53.572;10.174;2023-07-31T01:39:23;4.87;;;2.77;;
3297;SDS011;1661;53.572;10.174;2023-07-31T01:41:51;11.20;;;3.77;;
3297;SDS011;1661;53.572;10.174;2023-07-31T01:44:17;6.40;;;3.70;;
3297;SDS011;1661;53.572;10.174;2023-07-31T01:46:44;13.93;;;3.80;;
3297;SDS011;1661;53.572;10.174;2023-07-31T01:49:11;10.97;;;4.17;;
3297;SDS011;1661;53.572;10.174;2023-07-31T01:51:38;4.50;;;3.30;;
3297;SDS011;1661;53.572;10.174;2023-07-31T01:54:05;9.30;;;3.50;;
3297;SDS011;1661;53.572;10.174;2023-07-31T01:56:31;7.93;;;3.33;;
3297;SDS011;1661;53.572;10.174;2023-07-31T01:58:59;8.13;;;3.60;;
3297;SDS011;1661;53.572;10.174;2023-07-31T02:01:26;7.23;;;3.10;;
3297;SDS011;1661;53.572;10.174;2023-07-31T02:03:53;6.60;;;3.63;;
3297;SDS011;1661;53.572;10.174;2023-07-31T02:06:20;5.80;;;3.50;;
3297;SDS011;1661;53.572;10.174;2023-07-31T02:08:47;7.23;;;3.50;;
3297;SDS011;1661;53.572;10.174;2023-07-31T02:11:14;4.13;;;3.73;;
3297;SDS011;1661;53.572;10.174;2023-07-31T02:13:41;8.63;;;3.77;;
3297;SDS011;1661;53.572;10.174;2023-07-31T02:16:09;8.00;;;2.80;;
3297;SDS011;1661;53.572;10.174;2023-07-31T02:18:36;6.03;;;3.57;;
3297;SDS011;1661;53.572;10.174;2023-07-31T02:21:02;11.03;;;3.27;;
3297;SDS011;1661;53.572;10.174;2023-07-31T02:23:29;9.10;;;3.57;;
3297;SDS011;1661;53.572;10.174;2023-07-31T02:25:56;9.93;;;3.47;;
3297;SDS011;1661;53.572;10.174;2023-07-31T02:28:23;9.57;;;4.57;;
3297;SDS011;1661;53.572;10.174;2023-07-31T02:30:50;5.37;;;2.90;;
3297;SDS011;1661;53.572;10.174;2023-07-31T02:33:18;10.20;;;4.00;;
3297;SDS011;1661;53.572;10.174;2023-07-31T02:35:45;6.20;;;3.33;;
3297;SDS011;1661;53.572;10.174;2023-07-31T02:38:12;6.33;;;3.63;;
3297;SDS011;1661;53.572;10.174;2023-07-31T02:40:39;7.00;;;3.63;;
3297;SDS011;1661;53.572;10.174;2023-07-31T02:43:06;11.43;;;3.53;;
3297;SDS011;1661;53.572;10.174;2023-07-31T02:45:33;10.93;;;3.97;;
3297;SDS011;1661;53.572;10.174;2023-07-31T02:47:59;9.93;;;4.60;;
3297;SDS011;1661;53.572;10.174;2023-07-31T02:50:28;5.10;;;3.90;;
3297;SDS011;1661;53.572;10.174;2023-07-31T02:52:54;4.07;;;3.67;;
3297;SDS011;1661;53.572;10.174;2023-07-31T02:55:21;9.63;;;3.47;;
3297;SDS011;1661;53.572;10.174;2023-07-31T02:57:48;5.70;;;3.90;;
3297;SDS011;1661;53.572;10.174;2023-07-31T03:00:17;10.57;;;4.47;;
3297;SDS011;1661;53.572;10.174;2023-07-31T03:02:44;8.10;;;4.73;;
3297;SDS011;1661;53.572;10.174;2023-07-31T03:05:10;6.97;;;3.97;;
3297;SDS011;1661;53.572;10.174;2023-07-31T03:07:38;8.90;;;4.00;;
3297;SDS011;1661;53.572;10.174;2023-07-31T03:10:06;10.83;;;4.83;;
3297;SDS011;1661;53.572;10.174;2023-07-31T03:12:33;12.57;;;4.37;;
3297;SDS011;1661;53.572;10.174;2023-07-31T03:15:00;8.93;;;4.20;;
3297;SDS011;1661;53.572;10.174;2023-07-31T03:17:27;6.33;;;3.03;;
3297;SDS011;1661;53.572;10.174;2023-07-31T03:19:53;6.80;;;3.63;;
3297;SDS011;1661;53.572;10.174;2023-07-31T03:22:20;9.10;;;5.57;;
3297;SDS011;1661;53.572;10.174;2023-07-31T03:24:48;13.43;;;4.40;;
3297;SDS011;1661;53.572;10.174;2023-07-31T03:27:15;8.43;;;4.00;;
3297;SDS011;1661;53.572;10.174;2023-07-31T03:29:42;11.17;;;4.50;;
3297;SDS011;1661;53.572;10.174;2023-07-31T03:32:09;5.83;;;3.70;;
3297;SDS011;1661;53.572;10.174;2023-07-31T03:34:35;8.53;;;3.90;;
3297;SDS011;1661;53.572;10.174;2023-07-31T03:37:02;13.07;;;3.77;;
3297;SDS011;1661;53.572;10.174;2023-07-31T03:39:30;8.70;;;3.80;;
3297;SDS011;1661;53.572;10.174;2023-07-31T03:41:58;10.30;;;3.87;;
3297;SDS011;1661;53.572;10.174;2023-07-31T03:44:25;4.97;;;4.03;;
3297;SDS011;1661;53.572;10.174;2023-07-31T03:46:52;15.37;;;5.07;;
3297;SDS011;1661;53.572;10.174;2023-07-31T03:49:19;9.20;;;3.90;;
3297;SDS011;1661;53.572;10.174;2023-07-31T03:51:46;9.63;;;4.30;;
3297;SDS011;1661;53.572;10.174;2023-07-31T03:54:12;7.53;;;4.43;;
3297;SDS011;1661;53.572;10.174;2023-07-31T03:56:39;4.50;;;4.10;;
3297;SDS011;1661;53.572;10.174;2023-07-31T03:59:07;6.97;;;4.30;;
3297;SDS011;1661;53.572;10.174;2023-07-31T04:01:34;8.80;;;4.30;;
3297;SDS011;1661;53.572;10.174;2023-07-31T04:04:01;5.93;;;4.00;;
3297;SDS011;1661;53.572;10.174;2023-07-31T04:06:27;6.93;;;4.50;;
3297;SDS011;1661;53.572;10.174;2023-07-31T04:08:54;4.23;;;3.93;;
3297;SDS011;1661;53.572;10.174;2023-07-31T04:11:21;9.83;;;4.23;;
3297;SDS011;1661;53.572;10.174;2023-07-31T04:13:48;9.87;;;4.27;;
3297;SDS011;1661;53.572;10.174;2023-07-31T04:16:16;7.73;;;4.13;;
3297;SDS011;1661;53.572;10.174;2023-07-31T04:18:43;5.07;;;4.23;;
3297;SDS011;1661;53.572;10.174;2023-07-31T04:21:10;5.17;;;4.60;;
3297;SDS011;1661;53.572;10.174;2023-07-31T04:23:37;5.73;;;3.90;;
3297;SDS011;1661;53.572;10.174;2023-07-31T04:26:04;4.63;;;4.20;;
3297;SDS011;1661;53.572;10.174;2023-07-31T04:28:31;9.00;;;5.10;;
3297;SDS011;1661;53.572;10.174;2023-07-31T04:30:57;6.77;;;5.80;;
3297;SDS011;1661;53.572;10.174;2023-07-31T04:33:25;8.73;;;5.77;;
3297;SDS011;1661;53.572;10.174;2023-07-31T04:35:52;10.73;;;5.33;;
3297;SDS011;1661;53.572;10.174;2023-07-31T04:38:19;7.47;;;5.20;;
3297;SDS011;1661;53.572;10.174;2023-07-31T04:40:46;8.97;;;5.10;;
3297;SDS011;1661;53.572;10.174;2023-07-31T04:43:13;8.93;;;4.43;;
3297;SDS011;1661;53.572;10.174;2023-07-31T04:45:42;7.07;;;5.17;;
3297;SDS011;1661;53.572;10.174;2023-07-31T04:48:11;5.53;;;5.00;;
3297;SDS011;1661;53.572;10.174;2023-07-31T04:50:39;5.33;;;4.93;;
3297;SDS011;1661;53.572;10.174;2023-07-31T04:53:05;6.30;;;5.00;;
3297;SDS011;1661;53.572;10.174;2023-07-31T04:55:32;6.27;;;4.70;;
3297;SDS011;1661;53.572;10.174;2023-07-31T04:57:59;6.17;;;5.00;;
3297;SDS011;1661;53.572;10.174;2023-07-31T05:00:26;4.70;;;4.30;;
3297;SDS011;1661;53.572;10.174;2023-07-31T05:02:52;4.20;;;3.90;;
3297;SDS011;1661;53.572;10.174;2023-07-31T05:05:19;5.13;;;4.73;;
3297;SDS011;1661;53.572;10.174;2023-07-31T05:07:47;4.53;;;4.13;;
3297;SDS011;1661;53.572;10.174;2023-07-31T05:10:14;6.17;;;4.70;;
3297;SDS011;1661;53.572;10.174;2023-07-31T05:12:41;4.33;;;3.93;;
3297;SDS011;1661;53.572;10.174;2023-07-31T05:15:08;4.87;;;3.97;;
3297;SDS011;1661;53.572;10.174;2023-07-31T05:17:35;7.30;;;4.43;;
3297;SDS011;1661;53.572;10.174;2023-07-31T05:20:02;4.63;;;4.23;;
3297;SDS011;1661;53.572;10.174;2023-07-31T05:22:29;5.07;;;4.67;;
3297;SDS011;1661;53.572;10.174;2023-07-31T05:24:58;4.73;;;4.10;;
3297;SDS011;1661;53.572;10.174;2023-07-31T05:27:24;6.07;;;4.67;;
3297;SDS011;1661;53.572;10.174;2023-07-31T05:29:51;9.40;;;4.63;;
3297;SDS011;1661;53.572;10.174;2023-07-31T05:32:18;6.93;;;4.53;;
3297;SDS011;1661;53.572;10.174;2023-07-31T05:34:45;5.03;;;4.73;;
3297;SDS011;1661;53.572;10.174;2023-07-31T05:37:11;5.60;;;4.40;;
3297;SDS011;1661;53.572;10.174;2023-07-31T05:39:38;4.47;;;4.20;;
3297;SDS011;1661;53.572;10.174;2023-07-31T05:42:06;5.20;;;4.70;;
3297;SDS011;1661;53.572;10.174;2023-07-31T05:44:33;4.20;;;3.90;;
3297;SDS011;1661;53.572;10.174;2023-07-31T05:47:00;5.13;;;4.57;;
3297;SDS011;1661;53.572;10.174;2023-07-31T05:49:27;8.10;;;4.90;;
3297;SDS011;1661;53.572;10.174;2023-07-31T05:51:54;4.00;;;3.70;;
3297;SDS011;1661;53.572;10.174;2023-07-31T05:54:20;6.00;;;5.40;;
3297;SDS011;1661;53.572;10.174;2023-07-31T05:56:47;4.40;;;4.10;;
3297;SDS011;1661;53.572;10.174;2023-07-31T05:59:15;7.20;;;4.20;;
3297;SDS011;1661;53.572;10.174;2023-07-31T06:01:42;5.00;;;4.60;;
3297;SDS011;1661;53.572;10.174;2023-07-31T06:04:09;4.50;;;4.17;;
3297;SDS011;1661;53.572;10.174;2023-07-31T06:06:36;6.93;;;4.10;;
3297;SDS011;1661;53.572;10.174;2023-07-31T06:09:03;5.90;;;4.07;;
3297;SDS011;1661;53.572;10.174;2023-07-31T06:11:30;6.13;;;4.43;;
3297;SDS011;1661;53.572;10.174;2023-07-31T06:13:56;6.33;;;3.20;;
3297;SDS011;1661;53.572;10.174;2023-07-31T06:16:24;4.80;;;4.50;;
3297;SDS011;1661;53.572;10.174;2023-07-31T06:18:52;10.80;;;4.13;;
3297;SDS011;1661;53.572;10.174;2023-07-31T06:21:19;5.10;;;3.97;;
3297;SDS011;1661;53.572;10.174;2023-07-31T06:23:46;4.70;;;3.73;;
3297;SDS011;1661;53.572;10.174;2023-07-31T06:26:12;4.63;;;4.23;;
3297;SDS011;1661;53.572;10.174;2023-07-31T06:28:39;6.73;;;4.00;;
3297;SDS011;1661;53.572;10.174;2023-07-31T06:31:06;4.57;;;4.27;;
3297;SDS011;1661;53.572;10.174;2023-07-31T06:33:34;5.33;;;4.20;;
3297;SDS011;1661;53.572;10.174;2023-07-31T06:36:01;5.03;;;4.50;;
3297;SDS011;1661;53.572;10.174;2023-07-31T06:38:28;4.60;;;4.23;;
3297;SDS011;1661;53.572;10.174;2023-07-31T06:40:54;5.23;;;4.83;;
3297;SDS011;1661;53.572;10.174;2023-07-31T06:43:21;4.57;;;4.27;;
3297;SDS011;1661;53.572;10.174;2023-07-31T06:45:48;4.93;;;4.43;;
3297;SDS011;1661;53.572;10.174;2023-07-31T06:48:16;4.73;;;4.00;;
3297;SDS011;1661;53.572;10.174;2023-07-31T06:50:44;7.07;;;5.00;;
3297;SDS011;1661;53.572;10.174;2023-07-31T06:53:11;4.90;;;4.57;;
3297;SDS011;1661;53.572;10.174;2023-07-31T06:55:38;5.47;;;5.10;;
3297;SDS011;1661;53.572;10.174;2023-07-31T06:58:04;4.23;;;3.83;;
3297;SDS011;1661;53.572;10.174;2023-07-31T07:00:31;4.73;;;4.33;;
3297;SDS011;1661;53.572;10.174;2023-07-31T07:02:58;6.67;;;4.50;;
3297;SDS011;1661;53.572;10.174;2023-07-31T07:05:25;4.97;;;4.57;;
3297;SDS011;1661;53.572;10.174;2023-07-31T07:07:53;4.57;;;4.27;;
3297;SDS011;1661;53.572;10.174;2023-07-31T07:10:20;4.60;;;4.20;;
3297;SDS011;1661;53.572;10.174;2023-07-31T07:12:47;5.60;;;4.00;;
3297;SDS011;1661;53.572;10.174;2023-07-31T07:15:14;3.87;;;3.67;;
3297;SDS011;1661;53.572;10.174;2023-07-31T07:17:41;4.00;;;3.70;;
3297;SDS011;1661;53.572;10.174;2023-07-31T07:20:08;6.03;;;4.20;;
3297;SDS011;1661;53.572;10.174;2023-07-31T07:22:35;4.80;;;4.40;;
3297;SDS011;1661;53.572;10.174;2023-07-31T07:25:04;4.13;;;3.73;;
3297;SDS011;1661;53.572;10.174;2023-07-31T07:27:32;5.40;;;4.03;;
3297;SDS011;1661;53.572;10.174;2023-07-31T07:29:59;3.90;;;3.60;;
3297;SDS011;1661;53.572;10.174;2023-07-31T07:32:26;3.60;;;3.40;;
3297;SDS011;1661;53.572;10.174;2023-07-31T07:34:52;4.07;;;3.87;;
3297;SDS011;1661;53.572;10.174;2023-07-31T07:37:19;5.07;;;4.20;;
3297;SDS011;1661;53.572;10.174;2023-07-31T07:39:46;5.50;;;4.23;;
3297;SDS011;1661;53.572;10.174;2023-07-31T07:42:14;4.13;;;3.73;;
3297;SDS011;1661;53.572;10.174;2023-07-31T07:44:41;3.67;;;3.37;;
3297;SDS011;1661;53.572;10.174;2023-07-31T07:47:08;3.43;;;3.13;;
3297;SDS011;1661;53.572;10.174;2023-07-31T07:49:35;3.90;;;3.50;;
3297;SDS011;1661;53.572;10.174;2023-07-31T07:52:02;2.70;;;2.50;;
3297;SDS011;1661;53.572;10.174;2023-07-31T07:54:29;2.47;;;2.37;;
3297;SDS011;1661;53.572;10.174;2023-07-31T07:56:56;3.10;;;2.90;;
3297;SDS011;1661;53.572;10.174;2023-07-31T07:59:24;2.63;;;2.43;;
3297;SDS011;1661;53.572;10.174;2023-07-31T08:01:51;3.33;;;2.50;;
3297;SDS011;1661;53.572;10.174;2023-07-31T08:04:18;3.13;;;2.63;;
3297;SDS011;1661;53.572;10.174;2023-07-31T08:06:45;3.40;;;2.77;;
3297;SDS011;1661;53.572;10.174;2023-07-31T08:09:12;3.33;;;2.87;;
3297;SDS011;1661;53.572;10.174;2023-07-31T08:11:38;5.10;;;2.93;;
3297;SDS011;1661;53.572;10.174;2023-07-31T08:14:05;2.77;;;2.57;;
3297;SDS011;1661;53.572;10.174;2023-07-31T08:16:33;2.73;;;2.53;;
3297;SDS011;1661;53.572;10.174;2023-07-31T08:19:00;3.10;;;2.80;;
3297;SDS011;1661;53.572;10.174;2023-07-31T08:21:27;3.00;;;2.80;;
3297;SDS011;1661;53.572;10.174;2023-07-31T08:23:54;4.43;;;3.00;;
3297;SDS011;1661;53.572;10.174;2023-07-31T08:26:20;4.70;;;3.10;;
3297;SDS011;1661;53.572;10.174;2023-07-31T08:28:47;3.23;;;3.03;;
3297;SDS011;1661;53.572;10.174;2023-07-31T08:31:14;2.70;;;2.50;;
3297;SDS011;1661;53.572;10.174;2023-07-31T08:33:42;3.67;;;2.90;;
3297;SDS011;1661;53.572;10.174;2023-07-31T08:36:09;2.77;;;2.57;;
3297;SDS011;1661;53.572;10.174;2023-07-31T08:38:36;3.07;;;2.80;;
3297;SDS011;1661;53.572;10.174;2023-07-31T08:41:03;3.50;;;2.10;;
3297;SDS011;1661;53.572;10.174;2023-07-31T08:43:30;2.53;;;2.33;;
3297;SDS011;1661;53.572;10.174;2023-07-31T08:45:58;2.70;;;2.50;;
3297;SDS011;1661;53.572;10.174;2023-07-31T08:48:25;3.13;;;2.50;;
3297;SDS011;1661;53.572;10.174;2023-07-31T08:50:55;2.60;;;2.37;;
3297;SDS011;1661;53.572;10.174;2023-07-31T08:53:22;4.27;;;2.83;;
3297;SDS011;1661;53.572;10.174;2023-07-31T08:55:49;2.57;;;2.37;;
3297;SDS011;1661;53.572;10.174;2023-07-31T08:58:18;2.57;;;2.03;;
3297;SDS011;1661;53.572;10.174;2023-07-31T09:00:46;4.93;;;2.13;;
3297;SDS011;1661;53.572;10.174;2023-07-31T09:03:14;2.57;;;2.03;;
3297;SDS011;1661;53.572;10.174;2023-07-31T09:05:43;3.00;;;2.00;;
3297;SDS011;1661;53.572;10.174;2023-07-31T09:08:12;2.70;;;1.80;;
3297;SDS011;1661;53.572;10.174;2023-07-31T09:10:41;1.70;;;1.60;;
3297;SDS011;1661;53.572;10.174;2023-07-31T09:13:08;1.93;;;1.60;;
3297;SDS011;1661;53.572;10.174;2023-07-31T09:15:35;2.90;;;1.67;;
3297;SDS011;1661;53.572;10.174;2023-07-31T09:18:03;4.63;;;1.67;;
3297;SDS011;1661;53.572;10.174;2023-07-31T09:20:30;1.77;;;1.67;;
3297;SDS011;1661;53.572;10.174;2023-07-31T09:23:04;1.63;;;1.40;;
3297;SDS011;1661;53.572;10.174;2023-07-31T09:25:34;3.73;;;1.40;;
3297;SDS011;1661;53.572;10.174;2023-07-31T09:28:02;1.20;;;1.07;;
3297;SDS011;1661;53.572;10.174;2023-07-31T09:30:30;1.60;;;1.30;;
3297;SDS011;1661;53.572;10.174;2023-07-31T09:33:00;1.23;;;1.10;;
3297;SDS011;1661;53.572;10.174;2023-07-31T09:35:31;1.73;;;1.63;;
3297;SDS011;1661;53.572;10.174;2023-07-31T09:38:00;1.77;;;1.67;;
3297;SDS011;1661;53.572;10.174;2023-07-31T09:40:29;2.53;;;2.07;;
3297;SDS011;1661;53.572;10.174;2023-07-31T09:42:59;2.67;;;1.80;;
3297;SDS011;1661;53.572;10.174;2023-07-31T09:45:28;1.90;;;1.70;;
3297;SDS011;1661;53.572;10.174;2023-07-31T09:47:55;3.00;;;1.57;;
3297;SDS011;1661;53.572;10.174;2023-07-31T09:50:23;2.00;;;1.80;;
3297;SDS011;1661;53.572;10.174;2023-07-31T09:52:50;3.40;;;2.17;;
3297;SDS011;1661;53.572;10.174;2023-07-31T09:55:18;2.83;;;2.07;;
3297;SDS011;1661;53.572;10.174;2023-07-31T09:57:46;1.90;;;1.73;;
3297;SDS011;1661;53.572;10.174;2023-07-31T10:00:16;2.20;;;1.87;;
3297;SDS011;1661;53.572;10.174;2023-07-31T10:02:47;9.37;;;1.80;;
3297;SDS011;1661;53.572;10.174;2023-07-31T10:05:14;1.70;;;1.60;;
3297;SDS011;1661;53.572;10.174;2023-07-31T10:07:42;1.67;;;1.30;;
3297;SDS011;1661;53.572;10.174;2023-07-31T10:10:11;3.37;;;1.20;;
3297;SDS011;1661;53.572;10.174;2023-07-31T10:12:40;1.30;;;1.20;;
3297;SDS011;1661;53.572;10.174;2023-07-31T10:15:08;2.73;;;2.20;;
3297;SDS011;1661;53.572;10.174;2023-07-31T10:17:36;3.83;;;1.43;;
3297;SDS011;1661;53.572;10.174;2023-07-31T10:20:04;1.43;;;1.33;;
3297;SDS011;1661;53.572;10.174;2023-07-31T10:22:32;2.40;;;2.20;;
3297;SDS011;1661;53.572;10.174;2023-07-31T10:25:00;1.97;;;1.87;;
3297;SDS011;1661;53.572;10.174;2023-07-31T10:27:27;3.10;;;1.63;;
3297;SDS011;1661;53.572;10.174;2023-07-31T10:29:54;4.10;;;2.03;;
3297;SDS011;1661;53.572;10.174;2023-07-31T10:32:22;3.00;;;2.03;;
3297;SDS011;1661;53.572;10.174;2023-07-31T10:34:52;2.07;;;1.37;;
3297;SDS011;1661;53.572;10.174;2023-07-31T10:37:20;5.10;;;1.67;;
3297;SDS011;1661;53.572;10.174;2023-07-31T10:39:55;2.63;;;1.70;;
3297;SDS011;1661;53.572;10.174;2023-07-31T10:42:33;1.47;;;1.20;;
3297;SDS011;1661;53.572;10.174;2023-07-31T10:45:02;1.57;;;1.37;;
3297;SDS011;1661;53.572;10.174;2023-07-31T10:47:30;1.57;;;1.43;;
3297;SDS011;1661;53.572;10.174;2023-07-31T10:52:48;2.50;;;1.40;;
3297;SDS011;1661;53.572;10.174;2023-07-31T10:55:25;1.63;;;1.53;;
3297;SDS011;1661;53.572;10.174;2023-07-31T10:57:54;6.80;;;6.10;;
3297;SDS011;1661;53.572;10.174;2023-07-31T11:00:22;2.40;;;2.20;;
3297;SDS011;1661;53.572;10.174;2023-07-31T11:03:01;4.47;;;2.37;;
3297;SDS011;1661;53.572;10.174;2023-07-31T11:05:43;5.13;;;3.80;;
3297;SDS011;1661;53.572;10.174;2023-07-31T11:08:17;4.87;;;4.57;;
3297;SDS011;1661;53.572;10.174;2023-07-31T11:10:46;3.70;;;3.37;;
3297;SDS011;1661;53.572;10.174;2023-07-31T11:13:14;5.47;;;4.97;;
3297;SDS011;1661;53.572;10.174;2023-07-31T11:15:41;7.00;;;5.23;;
3297;SDS011;1661;53.572;10.174;2023-07-31T11:18:07;9.10;;;5.30;;
3297;SDS011;1661;53.572;10.174;2023-07-31T11:20:36;5.43;;;4.93;;
3297;SDS011;1661;53.572;10.174;2023-07-31T11:23:05;11.70;;;4.70;;
3297;SDS011;1661;53.572;10.174;2023-07-31T11:25:33;5.67;;;5.17;;
3297;SDS011;1661;53.572;10.174;2023-07-31T11:28:02;10.20;;;5.73;;
3297;SDS011;1661;53.572;10.174;2023-07-31T11:30:30;10.97;;;5.67;;
3297;SDS011;1661;53.572;10.174;2023-07-31T11:32:57;7.50;;;6.30;;
3297;SDS011;1661;53.572;10.174;2023-07-31T11:35:24;9.33;;;5.87;;
3297;SDS011;1661;53.572;10.174;2023-07-31T11:37:51;7.53;;;6.73;;
3297;SDS011;1661;53.572;10.174;2023-07-31T11:40:19;8.90;;;6.80;;
3297;SDS011;1661;53.572;10.174;2023-07-31T11:42:46;12.97;;;7.53;;
3297;SDS011;1661;53.572;10.174;2023-07-31T11:45:13;9.63;;;7.07;;
3297;SDS011;1661;53.572;10.174;2023-07-31T11:47:39;10.33;;;5.53;;
3297;SDS011;1661;53.572;10.174;2023-07-31T11:50:09;6.13;;;5.50;;
3297;SDS011;1661;53.572;10.174;2023-07-31T11:52:37;5.50;;;4.80;;
3297;SDS011;1661;53.572;10.174;2023-07-31T11:55:09;6.37;;;5.13;;
3297;SDS011;1661;53.572;10.174;2023-07-31T11:57:38;5.30;;;4.13;;
3297;SDS011;1661;53.572;10.174;2023-07-31T12:00:07;6.87;;;4.70;;
3297;SDS011;1661;53.572;10.174;2023-07-31T12:02:36;5.53;;;5.13;;
3297;SDS011;1661;53.572;10.174;2023-07-31T12:05:04;4.33;;;3.93;;
3297;SDS011;1661;53.572;10.174;2023-07-31T12:10:24;3.30;;;2.97;;
3297;SDS011;1661;53.572;10.174;2023-07-31T12:12:58;5.00;;;4.00;;
3297;SDS011;1661;53.572;10.174;2023-07-31T12:15:32;3.73;;;3.43;;
3297;SDS011;1661;53.572;10.174;2023-07-31T12:18:04;4.13;;;3.43;;
3297;SDS011;1661;53.572;10.174;2023-07-31T12:20:32;7.07;;;3.23;;
3297;SDS011;1661;53.572;10.174;2023-07-31T12:22:59;4.13;;;2.70;;
3297;SDS011;1661;53.572;10.174;2023-07-31T12:25:30;3.50;;;3.20;;
3297;SDS011;1661;53.572;10.174;2023-07-31T12:28:03;3.90;;;3.60;;
3297;SDS011;1661;53.572;10.174;2023-07-31T12:30:32;7.70;;;7.20;;
3297;SDS011;1661;53.572;10.174;2023-07-31T12:33:03;4.07;;;2.60;;
3297;SDS011;1661;53.572;10.174;2023-07-31T12:38:13;2.20;;;2.10;;
3297;SDS011;1661;53.572;10.174;2023-07-31T12:40:40;1.10;;;0.83;;
3297;SDS011;1661;53.572;10.174;2023-07-31T12:43:09;1.90;;;1.10;;
3297;SDS011;1661;53.572;10.174;2023-07-31T12:45:36;1.20;;;0.90;;
3297;SDS011;1661;53.572;10.174;2023-07-31T12:48:03;4.30;;;0.90;;
3297;SDS011;1661;53.572;10.174;2023-07-31T12:50:30;1.40;;;1.10;;
3297;SDS011;1661;53.572;10.174;2023-07-31T12:52:57;1.47;;;0.93;;
3297;SDS011;1661;53.572;10.174;2023-07-31T12:55:24;1.17;;;0.83;;
3297;SDS011;1661;53.572;10.174;2023-07-31T12:57:51;1.20;;;0.80;;
3297;SDS011;1661;53.572;10.174;2023-07-31T13:00:19;2.40;;;0.67;;
3297;SDS011;1661;53.572;10.174;2023-07-31T13:02:46;1.30;;;1.00;;
3297;SDS011;1661;53.572;10.174;2023-07-31T13:05:12;2.43;;;1.10;;
3297;SDS011;1661;53.572;10.174;2023-07-31T13:07:40;1.50;;;0.90;;
3297;SDS011;1661;53.572;10.174;2023-07-31T13:10:07;3.00;;;0.80;;
3297;SDS011;1661;53.572;10.174;2023-07-31T13:12:34;1.40;;;1.17;;
3297;SDS011;1661;53.572;10.174;2023-07-31T13:15:01;1.00;;;0.70;;
3297;SDS011;1661;53.572;10.174;2023-07-31T13:17:29;1.20;;;0.80;;
3297;SDS011;1661;53.572;10.174;2023-07-31T13:19:56;1.73;;;0.70;;
3297;SDS011;1661;53.572;10.174;2023-07-31T13:22:23;1.30;;;0.80;;
3297;SDS011;1661;53.572;10.174;2023-07-31T13:24:49;1.50;;;0.90;;
3297;SDS011;1661;53.572;10.174;2023-07-31T13:27:16;1.10;;;0.67;;
3297;SDS011;1661;53.572;10.174;2023-07-31T13:29:45;1.20;;;0.90;;
3297;SDS011;1661;53.572;10.174;2023-07-31T13:32:12;9.03;;;1.40;;
3297;SDS011;1661;53.572;10.174;2023-07-31T13:34:40;1.40;;;1.17;;
3297;SDS011;1661;53.572;10.174;2023-07-31T13:37:07;1.30;;;1.10;;
3297;SDS011;1661;53.572;10.174;2023-07-31T13:39:34;1.23;;;0.87;;
3297;SDS011;1661;53.572;10.174;2023-07-31T13:42:01;2.50;;;1.17;;
3297;SDS011;1661;53.572;10.174;2023-07-31T13:44:31;2.70;;;1.10;;
3297;SDS011;1661;53.572;10.174;2023-07-31T13:46:58;2.00;;;1.47;;
3297;SDS011;1661;53.572;10.174;2023-07-31T13:49:25;1.10;;;0.80;;
3297;SDS011;1661;53.572;10.174;2023-07-31T13:51:53;1.67;;;1.03;;
3297;SDS011;1661;53.572;10.174;2023-07-31T13:54:20;1.87;;;1.00;;
3297;SDS011;1661;53.572;10.174;2023-07-31T13:56:47;2.10;;;1.20;;
3297;SDS011;1661;53.572;10.174;2023-07-31T13:59:14;1.60;;;0.93;;
3297;SDS011;1661;53.572;10.174;2023-07-31T14:01:41;2.60;;;0.90;;
3297;SDS011;1661;53.572;10.174;2023-07-31T14:04:08;1.30;;;1.10;;
3297;SDS011;1661;53.572;10.174;2023-07-31T14:06:35;2.13;;;0.90;;
3297;SDS011;1661;53.572;10.174;2023-07-31T14:09:04;5.63;;;0.93;;
3297;SDS011;1661;53.572;10.174;2023-07-31T14:11:31;2.10;;;1.03;;
3297;SDS011;1661;53.572;10.174;2023-07-31T14:13:58;1.47;;;1.00;;
3297;SDS011;1661;53.572;10.174;2023-07-31T14:16:26;1.20;;;0.90;;
3297;SDS011;1661;53.572;10.174;2023-07-31T14:18:53;2.20;;;0.93;;
3297;SDS011;1661;53.572;10.174;2023-07-31T14:21:20;1.60;;;1.10;;
3297;SDS011;1661;53.572;10.174;2023-07-31T14:23:46;1.30;;;1.10;;
3297;SDS011;1661;53.572;10.174;2023-07-31T14:26:14;2.17;;;1.50;;
3297;SDS011;1661;53.572;10.174;2023-07-31T14:28:41;2.10;;;1.63;;
3297;SDS011;1661;53.572;10.174;2023-07-31T14:31:08;2.03;;;1.53;;
3297;SDS011;1661;53.572;10.174;2023-07-31T14:33:35;3.10;;;1.60;;
3297;SDS011;1661;53.572;10.174;2023-07-31T14:36:02;2.20;;;1.77;;
3297;SDS011;1661;53.572;10.174;2023-07-31T14:38:29;2.83;;;1.73;;
3297;SDS011;1661;53.572;10.174;2023-07-31T14:40:56;3.27;;;1.50;;
3297;SDS011;1661;53.572;10.174;2023-07-31T14:43:24;1.63;;;1.20;;
3297;SDS011;1661;53.572;10.174;2023-07-31T14:45:51;2.63;;;1.47;;
3297;SDS011;1661;53.572;10.174;2023-07-31T14:48:18;1.47;;;1.00;;
3297;SDS011;1661;53.572;10.174;2023-07-31T14:50:45;1.40;;;1.30;;
3297;SDS011;1661;53.572;10.174;2023-07-31T14:53:12;2.60;;;1.30;;
3297;SDS011;1661;53.572;10.174;2023-07-31T14:55:38;1.30;;;1.10;;
3297;SDS011;1661;53.572;10.174;2023-07-31T14:58:05;2.10;;;1.40;;
3297;SDS011;1661;53.572;10.174;2023-07-31T15:00:33;2.60;;;1.57;;
3297;SDS011;1661;53.572;10.174;2023-07-31T15:03:00;1.30;;;1.10;;
3297;SDS011;1661;53.572;10.174;2023-07-31T15:05:27;1.70;;;1.30;;
3297;SDS011;1661;53.572;10.174;2023-07-31T15:07:54;1.90;;;1.20;;
3297;SDS011;1661;53.572;10.174;2023-07-31T15:10:21;2.37;;;1.13;;